Time;durP1;ratioP1;P1;durP2;ratioP2;P2;SDS_P1;SDS_P2;PMS_P1;PMS_P2;Temp;Humidity;BMP_temperature;BMP_pressure;BME280_temperature;BME280_humidity;BME280_pressure;Samples;Min_cycle;Max_cycle;Signal;HPM_P1;HPM_P2
2021/10/23 00:01:25;;;;;;;133.68;61.63;;;;;;;;;;5038720;28;20021;-73
2021/10/23 00:03:54;;;;;;;128.60;60.53;;;;;;;;;;5016404;28;20104;-73
2021/10/23 00:06:20;;;;;;;110.68;55.42;;;;;;;;;;5035535;28;20018;-70
2021/10/23 00:08:46;;;;;;;124.60;57.78;;;;;;;;;;5034852;28;20036;-73
2021/10/23 00:11:12;;;;;;;119.05;58.30;;;;;;;;;;5033827;28;20503;-73
2021/10/23 00:13:38;;;;;;;117.00;58.50;;;;;;;;;;5034887;28;20029;-73
2021/10/23 00:16:05;;;;;;;112.50;56.85;;;;;;;;;;5034461;28;20116;-73
2021/10/23 00:18:31;;;;;;;111.65;55.72;;;;;;;;;;5016908;28;20033;-74
2021/10/23 00:20:57;;;;;;;107.05;57.50;;;;;;;;;;5033405;28;20083;-72
2021/10/23 00:23:23;;;;;;;123.13;57.40;;;;;;;;;;5035880;28;20021;-73
2021/10/23 00:25:49;;;;;;;137.88;61.55;;;;;;;;;;5036314;28;20067;-73
2021/10/23 00:28:15;;;;;;;149.07;64.80;;;;;;;;;;5034890;28;20509;-73
2021/10/23 00:30:41;;;;;;;139.10;64.10;;;;;;;;;;5026289;28;20041;-72
2021/10/23 00:33:07;;;;;;;145.57;66.57;;;;;;;;;;5010950;28;20038;-73
2021/10/23 00:35:35;;;;;;;137.25;63.15;;;;;;;;;;5037402;28;20042;-74
2021/10/23 00:38:01;;;;;;;144.40;64.70;;;;;;;;;;5037183;28;20041;-72
2021/10/23 00:40:27;;;;;;;148.05;66.80;;;;;;;;;;5034988;28;20037;-69
2021/10/23 00:42:54;;;;;;;140.80;65.78;;;;;;;;;;5035202;28;20430;-73
2021/10/23 00:45:20;;;;;;;125.05;62.47;;;;;;;;;;5034564;28;20065;-74
2021/10/23 00:47:46;;;;;;;156.77;68.72;;;;;;;;;;5033015;28;20029;-73
2021/10/23 00:50:12;;;;;;;130.23;66.57;;;;;;;;;;5035815;28;20470;-74
2021/10/23 00:52:39;;;;;;;141.43;67.07;;;;;;;;;;5033962;28;20033;-73
2021/10/23 00:55:08;;;;;;;179.07;74.57;;;;;;;;;;5036568;28;20033;-73
2021/10/23 00:57:35;;;;;;;168.13;73.22;;;;;;;;;;5033633;28;20509;-74
2021/10/23 01:00:01;;;;;;;132.90;64.65;;;;;;;;;;5034925;28;20033;-72
2021/10/23 01:02:27;;;;;;;121.03;59.58;;;;;;;;;;5034195;28;20101;-74
2021/10/23 01:04:53;;;;;;;133.80;63.28;;;;;;;;;;5035071;28;20018;-72
2021/10/23 01:07:19;;;;;;;121.95;58.88;;;;;;;;;;5033573;28;20048;-73
2021/10/23 01:09:45;;;;;;;151.20;65.88;;;;;;;;;;5033288;28;20025;-74
2021/10/23 01:12:13;;;;;;;136.65;60.35;;;;;;;;;;5036513;28;20037;-73
2021/10/23 01:14:43;;;;;;;131.48;59.97;;;;;;;;;;5033536;28;20036;-73
2021/10/23 01:17:09;;;;;;;146.50;61.72;;;;;;;;;;5033760;28;20029;-73
2021/10/23 01:19:38;;;;;;;124.88;57.95;;;;;;;;;;5033602;28;20104;-73
2021/10/23 01:22:05;;;;;;;116.45;57.20;;;;;;;;;;5032996;28;20041;-73
2021/10/23 01:24:31;;;;;;;149.68;63.75;;;;;;;;;;5033989;28;20029;-72
2021/10/23 01:26:57;;;;;;;140.52;61.42;;;;;;;;;;5039957;28;20026;-74
2021/10/23 01:29:23;;;;;;;127.57;60.15;;;;;;;;;;5035410;28;20091;-73
2021/10/23 01:31:51;;;;;;;156.60;65.43;;;;;;;;;;5034519;28;20478;-70
2021/10/23 01:34:18;;;;;;;147.63;64.95;;;;;;;;;;5034374;28;20041;-74
2021/10/23 01:36:49;;;;;;;144.35;63.10;;;;;;;;;;5033464;28;20021;-74
2021/10/23 01:39:15;;;;;;;128.65;62.45;;;;;;;;;;5034912;28;20359;-74
2021/10/23 01:41:42;;;;;;;137.00;63.40;;;;;;;;;;5038061;28;20032;-72
2021/10/23 01:44:09;;;;;;;149.07;64.75;;;;;;;;;;5034300;28;20116;-72
2021/10/23 01:46:35;;;;;;;129.68;60.45;;;;;;;;;;5032444;28;20022;-74
2021/10/23 01:49:01;;;;;;;130.75;61.10;;;;;;;;;;5033564;28;20029;-74
2021/10/23 01:51:28;;;;;;;114.10;56.20;;;;;;;;;;5033911;28;20391;-74
2021/10/23 01:53:54;;;;;;;100.55;55.53;;;;;;;;;;5033267;28;20021;-71
2021/10/23 01:56:20;;;;;;;82.43;48.53;;;;;;;;;;5034133;28;20224;-74
2021/10/23 01:58:47;;;;;;;60.15;37.85;;;;;;;;;;5033251;28;20107;-71
2021/10/23 02:01:13;;;;;;;46.70;32.38;;;;;;;;;;5031941;28;20474;-74
2021/10/23 02:03:39;;;;;;;47.72;32.85;;;;;;;;;;5032708;28;20021;-74
2021/10/23 02:06:09;;;;;;;48.72;34.85;;;;;;;;;;5032566;28;20017;-73
2021/10/23 02:08:37;;;;;;;50.83;35.10;;;;;;;;;;5032724;28;20040;-74
2021/10/23 02:11:04;;;;;;;54.38;35.85;;;;;;;;;;5032891;28;20147;-74
2021/10/23 02:13:30;;;;;;;54.65;38.35;;;;;;;;;;5032836;28;20037;-73
2021/10/23 02:15:56;;;;;;;47.22;33.92;;;;;;;;;;5031651;28;20034;-73
2021/10/23 02:18:22;;;;;;;47.50;32.35;;;;;;;;;;5032937;28;20037;-74
2021/10/23 02:20:48;;;;;;;43.45;31.17;;;;;;;;;;5032793;28;20026;-73
2021/10/23 02:23:17;;;;;;;41.33;29.15;;;;;;;;;;5033658;28;20056;-75
2021/10/23 02:25:47;;;;;;;35.45;24.60;;;;;;;;;;5017843;28;20029;-74
2021/10/23 02:28:16;;;;;;;28.73;20.83;;;;;;;;;;5032309;28;20041;-73
2021/10/23 02:30:42;;;;;;;27.88;20.65;;;;;;;;;;5032660;28;20025;-72
2021/10/23 02:33:08;;;;;;;24.48;16.85;;;;;;;;;;5031870;28;20083;-72
2021/10/23 02:35:34;;;;;;;20.95;14.88;;;;;;;;;;5034520;28;20046;-74
2021/10/23 02:38:00;;;;;;;19.92;13.65;;;;;;;;;;5032196;28;20034;-73
2021/10/23 02:40:26;;;;;;;17.55;12.13;;;;;;;;;;5032058;28;20025;-72
2021/10/23 02:42:52;;;;;;;12.60;8.20;;;;;;;;;;5033742;28;20096;-72
2021/10/23 02:45:18;;;;;;;13.13;7.93;;;;;;;;;;5032546;28;20100;-73
2021/10/23 02:47:44;;;;;;;11.40;7.28;;;;;;;;;;5032831;28;20033;-74
2021/10/23 02:50:10;;;;;;;9.30;5.00;;;;;;;;;;5035177;28;20493;-75
2021/10/23 02:52:37;;;;;;;10.13;5.60;;;;;;;;;;5035755;28;20063;-73
2021/10/23 02:55:06;;;;;;;14.88;5.22;;;;;;;;;;5031813;28;20508;-71
2021/10/23 02:57:32;;;;;;;8.85;4.30;;;;;;;;;;5030823;28;20039;-73
2021/10/23 02:59:58;;;;;;;10.20;4.40;;;;;;;;;;5031398;28;20057;-74
2021/10/23 03:02:24;;;;;;;10.15;3.95;;;;;;;;;;5030401;28;20079;-74
2021/10/23 03:04:50;;;;;;;8.80;3.65;;;;;;;;;;5036769;28;20033;-73
2021/10/23 03:07:16;;;;;;;11.88;3.55;;;;;;;;;;5017843;28;20075;-73
2021/10/23 03:09:42;;;;;;;14.15;3.30;;;;;;;;;;5036163;28;20033;-72
2021/10/23 03:12:08;;;;;;;7.50;3.13;;;;;;;;;;5031860;28;20029;-73
2021/10/23 03:14:34;;;;;;;8.35;3.13;;;;;;;;;;5036087;28;20025;-73
2021/10/23 03:17:02;;;;;;;11.00;3.60;;;;;;;;;;5035468;28;20237;-73
2021/10/23 03:19:28;;;;;;;8.88;3.25;;;;;;;;;;5035405;28;20026;-74
2021/10/23 03:21:54;;;;;;;7.72;3.33;;;;;;;;;;5036031;28;20496;-73
2021/10/23 03:24:20;;;;;;;10.45;3.72;;;;;;;;;;5036945;28;20367;-74
2021/10/23 03:26:46;;;;;;;6.32;2.83;;;;;;;;;;5035105;28;20382;-74
2021/10/23 03:29:12;;;;;;;14.75;3.00;;;;;;;;;;5035335;28;20090;-73
2021/10/23 03:31:38;;;;;;;14.18;2.97;;;;;;;;;;5035385;28;20426;-73
2021/10/23 03:34:04;;;;;;;7.18;3.35;;;;;;;;;;5037852;28;20393;-74
2021/10/23 03:36:31;;;;;;;11.63;3.40;;;;;;;;;;5036005;28;20041;-73
2021/10/23 03:38:57;;;;;;;8.57;3.50;;;;;;;;;;5036008;28;20038;-74
2021/10/23 03:41:23;;;;;;;8.50;3.45;;;;;;;;;;5034830;28;20028;-74
2021/10/23 03:43:51;;;;;;;9.80;3.90;;;;;;;;;;5035445;28;20026;-73
2021/10/23 03:46:17;;;;;;;6.80;3.05;;;;;;;;;;5035279;28;21447;-73
2021/10/23 03:48:43;;;;;;;10.35;3.63;;;;;;;;;;5034662;28;20479;-73
2021/10/23 03:51:09;;;;;;;6.80;2.90;;;;;;;;;;5036149;28;20391;-73
2021/10/23 03:53:38;;;;;;;9.85;3.20;;;;;;;;;;5035300;28;20030;-73
2021/10/23 03:56:04;;;;;;;4.60;2.60;;;;;;;;;;5035013;28;20147;-73
2021/10/23 03:58:30;;;;;;;7.60;2.85;;;;;;;;;;5035629;28;20438;-71
2021/10/23 04:00:58;;;;;;;8.35;2.90;;;;;;;;;;5034310;28;20025;-70
2021/10/23 04:03:24;;;;;;;7.38;2.90;;;;;;;;;;5035050;28;20021;-74
2021/10/23 04:05:50;;;;;;;9.73;3.00;;;;;;;;;;5033120;28;20581;-73
2021/10/23 04:08:16;;;;;;;9.32;2.63;;;;;;;;;;5034085;28;20037;-73
2021/10/23 04:10:44;;;;;;;9.38;3.20;;;;;;;;;;5034148;28;20031;-73
2021/10/23 04:13:10;;;;;;;6.30;2.88;;;;;;;;;;5034935;28;20025;-74
2021/10/23 04:15:36;;;;;;;8.90;2.90;;;;;;;;;;5033611;28;20056;-73
2021/10/23 04:18:02;;;;;;;6.43;2.83;;;;;;;;;;5033961;28;20178;-73
2021/10/23 04:20:31;;;;;;;7.47;3.25;;;;;;;;;;5037139;28;20033;-73
2021/10/23 04:23:04;;;;;;;9.05;2.80;;;;;;;;;;5016324;28;20030;-73
2021/10/23 04:25:32;;;;;;;5.72;2.75;;;;;;;;;;5032747;28;20029;-74
2021/10/23 04:27:58;;;;;;;7.35;3.05;;;;;;;;;;5033720;28;20036;-71
2021/10/23 04:30:24;;;;;;;8.95;3.03;;;;;;;;;;5033859;28;20053;-73
2021/10/23 04:32:50;;;;;;;8.52;3.00;;;;;;;;;;5033916;28;20552;-72
2021/10/23 04:35:16;;;;;;;8.40;3.10;;;;;;;;;;5033142;28;20406;-73
2021/10/23 04:37:42;;;;;;;8.52;3.08;;;;;;;;;;5034222;28;20087;-72
2021/10/23 04:40:08;;;;;;;12.05;2.83;;;;;;;;;;5032053;28;20390;-72
2021/10/23 04:42:35;;;;;;;9.57;3.10;;;;;;;;;;5032716;28;20101;-73
2021/10/23 04:45:01;;;;;;;7.75;3.10;;;;;;;;;;5033508;28;20025;-74
2021/10/23 04:47:27;;;;;;;10.23;3.03;;;;;;;;;;5033944;28;20031;-74
2021/10/23 04:49:53;;;;;;;8.63;3.40;;;;;;;;;;5033775;28;20071;-72
2021/10/23 04:52:19;;;;;;;8.40;3.08;;;;;;;;;;5031889;28;20052;-72
2021/10/23 04:54:45;;;;;;;5.68;2.50;;;;;;;;;;5032950;28;20021;-72
2021/10/23 04:57:12;;;;;;;7.20;3.08;;;;;;;;;;5033259;28;20030;-73
2021/10/23 04:59:38;;;;;;;8.05;3.15;;;;;;;;;;5033420;28;20026;-73
2021/10/23 05:02:04;;;;;;;8.45;3.10;;;;;;;;;;5034184;28;20025;-73
2021/10/23 05:04:30;;;;;;;8.10;3.10;;;;;;;;;;5033447;28;20827;-73
2021/10/23 05:06:58;;;;;;;6.38;2.92;;;;;;;;;;5033469;28;20463;-73
2021/10/23 05:09:24;;;;;;;7.10;3.25;;;;;;;;;;5033916;28;20159;-72
2021/10/23 05:12:06;;;;;;;7.78;3.00;;;;;;;;;;5030948;28;20032;-70
2021/10/23 05:14:32;;;;;;;7.13;3.35;;;;;;;;;;5030417;28;20033;-73
2021/10/23 05:16:58;;;;;;;10.20;3.33;;;;;;;;;;5031329;28;20060;-68
2021/10/23 05:19:24;;;;;;;9.68;3.20;;;;;;;;;;5043663;28;20037;-77
2021/10/23 05:21:57;;;;;;;8.63;3.22;;;;;;;;;;5023778;28;20038;-76
2021/10/23 05:24:27;;;;;;;8.93;3.97;;;;;;;;;;5042330;28;20399;-76
2021/10/23 05:26:56;;;;;;;7.63;3.53;;;;;;;;;;5029731;28;20036;-73
2021/10/23 05:29:22;;;;;;;8.32;3.70;;;;;;;;;;5033580;28;20033;-70
2021/10/23 05:31:49;;;;;;;14.55;4.25;;;;;;;;;;5031455;28;20042;-70
2021/10/23 05:34:17;;;;;;;12.70;5.85;;;;;;;;;;5028165;28;20053;-74
2021/10/23 05:36:43;;;;;;;12.50;5.78;;;;;;;;;;5026410;28;20059;-74
2021/10/23 05:39:09;;;;;;;17.63;7.32;;;;;;;;;;5032775;28;20514;-73
2021/10/23 05:41:35;;;;;;;27.58;11.88;;;;;;;;;;5032915;28;20029;-73
2021/10/23 05:44:01;;;;;;;27.63;10.45;;;;;;;;;;5032972;28;20021;-73
2021/10/23 05:46:27;;;;;;;19.60;8.38;;;;;;;;;;5033099;28;20029;-71
2021/10/23 05:48:53;;;;;;;16.70;5.97;;;;;;;;;;5033193;28;20087;-73
2021/10/23 05:51:20;;;;;;;13.57;4.10;;;;;;;;;;5031787;28;20053;-71
2021/10/23 05:53:46;;;;;;;11.30;4.03;;;;;;;;;;5033702;28;20033;-74
2021/10/23 05:56:14;;;;;;;10.77;4.95;;;;;;;;;;5033007;28;20025;-74
2021/10/23 05:58:42;;;;;;;8.82;3.92;;;;;;;;;;5030496;28;20029;-70
2021/10/23 06:01:08;;;;;;;10.20;4.10;;;;;;;;;;5027908;28;20096;-73
2021/10/23 06:03:37;;;;;;;8.90;4.05;;;;;;;;;;5032546;28;20052;-74
2021/10/23 06:06:04;;;;;;;10.13;4.53;;;;;;;;;;5030585;28;20021;-74
2021/10/23 06:08:30;;;;;;;9.55;4.20;;;;;;;;;;5031657;28;20025;-79
2021/10/23 06:10:56;;;;;;;8.95;3.83;;;;;;;;;;5032221;28;20029;-72
2021/10/23 06:13:23;;;;;;;10.82;3.80;;;;;;;;;;5192885;23;20058;-77
2021/10/23 06:15:50;;;;;;;10.68;3.70;;;;;;;;;;4981403;28;20026;-76
2021/10/23 06:18:17;;;;;;;8.63;3.78;;;;;;;;;;5005849;28;20057;-78
2021/10/23 06:20:46;;;;;;;9.80;4.20;;;;;;;;;;4990532;28;20033;-78
2021/10/23 06:23:13;;;;;;;14.48;4.05;;;;;;;;;;5002789;28;20030;-76
2021/10/23 06:25:39;;;;;;;8.70;3.67;;;;;;;;;;5001101;28;20074;-76
2021/10/23 06:28:05;;;;;;;9.43;3.92;;;;;;;;;;4997585;28;20058;-75
2021/10/23 06:30:31;;;;;;;10.43;4.20;;;;;;;;;;4996162;28;20018;-73
2021/10/23 06:32:59;;;;;;;13.30;4.53;;;;;;;;;;4993632;28;20019;-72
2021/10/23 06:35:26;;;;;;;10.18;4.40;;;;;;;;;;4992183;28;20049;-72
2021/10/23 06:37:55;;;;;;;11.32;4.55;;;;;;;;;;4993197;28;20065;-73
2021/10/23 06:40:21;;;;;;;10.30;4.53;;;;;;;;;;4995193;28;20109;-77
2021/10/23 06:42:47;;;;;;;15.20;4.88;;;;;;;;;;4991746;28;20418;-78
2021/10/23 06:45:15;;;;;;;9.75;4.82;;;;;;;;;;5005923;28;20535;-77
2021/10/23 06:47:41;;;;;;;8.38;4.72;;;;;;;;;;5000171;28;20022;-77
2021/10/23 06:50:12;;;;;;;9.00;4.00;;;;;;;;;;5008329;28;20027;-78
2021/10/23 06:52:39;;;;;;;11.35;4.60;;;;;;;;;;4996633;28;20034;-76
2021/10/23 06:55:06;;;;;;;10.82;4.18;;;;;;;;;;4997987;28;20034;-76
2021/10/23 06:57:32;;;;;;;9.05;4.38;;;;;;;;;;4997046;28;20023;-74
2021/10/23 07:00:06;;;;;;;14.57;4.70;;;;;;;;;;4988727;28;20054;-75
2021/10/23 07:02:38;;;;;;;9.23;4.50;;;;;;;;;;5003021;28;20034;-77
2021/10/23 07:05:04;;;;;;;12.57;5.00;;;;;;;;;;4998379;28;20034;-74
2021/10/23 07:07:30;;;;;;;11.48;4.30;;;;;;;;;;4999286;28;20037;-72
2021/10/23 07:09:56;;;;;;;9.52;4.45;;;;;;;;;;4997839;28;20026;-76
2021/10/23 07:12:35;;;;;;;11.65;4.47;;;;;;;;;;4996410;28;20069;-71
2021/10/23 07:15:02;;;;;;;10.20;3.63;;;;;;;;;;4973799;28;20415;-71
2021/10/23 07:17:29;;;;;;;8.93;3.80;;;;;;;;;;4989066;28;20101;-74
2021/10/23 07:20:05;;;;;;;17.27;6.53;;;;;;;;;;4992225;28;20030;-75
2021/10/23 07:22:31;;;;;;;26.98;12.18;;;;;;;;;;4997902;28;20038;-73
2021/10/23 07:24:58;;;;;;;14.93;6.85;;;;;;;;;;4993635;28;20041;-73
2021/10/23 07:27:32;;;;;;;25.83;11.60;;;;;;;;;;4990688;28;20021;-78
2021/10/23 07:29:59;;;;;;;13.85;6.00;;;;;;;;;;4993489;28;20033;-69
2021/10/23 07:32:25;;;;;;;22.77;9.90;;;;;;;;;;4991134;28;20026;-68
2021/10/23 07:34:53;;;;;;;16.05;7.57;;;;;;;;;;4992667;28;20037;-71
2021/10/23 07:37:19;;;;;;;16.40;6.72;;;;;;;;;;4992620;28;20030;-71
2021/10/23 07:39:45;;;;;;;9.77;4.80;;;;;;;;;;4988843;28;20064;-69
2021/10/23 07:42:11;;;;;;;15.57;4.93;;;;;;;;;;4992464;28;20073;-71
2021/10/23 07:44:37;;;;;;;14.18;5.28;;;;;;;;;;4992678;28;20081;-70
2021/10/23 07:47:03;;;;;;;7.93;3.80;;;;;;;;;;4992664;28;20037;-70
2021/10/23 07:49:29;;;;;;;16.90;4.35;;;;;;;;;;4994033;28;20479;-71
2021/10/23 07:51:55;;;;;;;8.68;4.10;;;;;;;;;;4996011;28;20034;-70
2021/10/23 07:54:21;;;;;;;15.45;5.10;;;;;;;;;;4995695;28;20033;-71
2021/10/23 07:56:47;;;;;;;12.90;4.82;;;;;;;;;;4995897;28;20038;-71
2021/10/23 07:59:14;;;;;;;14.52;5.18;;;;;;;;;;4994059;28;20641;-69
2021/10/23 08:01:40;;;;;;;10.07;4.18;;;;;;;;;;4995664;28;20030;-71
2021/10/23 08:04:06;;;;;;;11.20;3.90;;;;;;;;;;4996093;28;20706;-71
2021/10/23 08:06:32;;;;;;;11.95;4.75;;;;;;;;;;4995874;28;20018;-70
2021/10/23 08:08:58;;;;;;;10.30;4.40;;;;;;;;;;4996067;28;20030;-72
2021/10/23 08:11:25;;;;;;;8.30;3.67;;;;;;;;;;4995925;28;20085;-71
2021/10/23 08:13:51;;;;;;;9.55;3.92;;;;;;;;;;4996133;28;20124;-71
2021/10/23 08:16:17;;;;;;;13.48;5.00;;;;;;;;;;4996424;28;20029;-71
2021/10/23 08:18:43;;;;;;;17.95;5.18;;;;;;;;;;4993508;28;20117;-69
2021/10/23 08:21:09;;;;;;;12.60;4.72;;;;;;;;;;4991837;28;20085;-71
2021/10/23 08:23:35;;;;;;;13.50;4.70;;;;;;;;;;4995540;28;20118;-69
2021/10/23 08:26:01;;;;;;;17.45;5.45;;;;;;;;;;4995613;28;20411;-71
2021/10/23 08:28:27;;;;;;;12.27;5.28;;;;;;;;;;4977131;28;20030;-71
2021/10/23 08:30:53;;;;;;;15.00;5.30;;;;;;;;;;4995939;28;20476;-71
2021/10/23 08:33:20;;;;;;;8.73;3.70;;;;;;;;;;4995020;28;20384;-71
2021/10/23 08:35:46;;;;;;;10.70;3.90;;;;;;;;;;4995647;28;20430;-71
2021/10/23 08:38:13;;;;;;;13.02;4.07;;;;;;;;;;4995497;28;20030;-72
2021/10/23 08:40:39;;;;;;;11.82;3.80;;;;;;;;;;4994835;28;20041;-71
2021/10/23 08:43:07;;;;;;;14.65;4.50;;;;;;;;;;4995060;28;20022;-69
2021/10/23 08:45:35;;;;;;;20.15;8.27;;;;;;;;;;4995399;28;20038;-71
2021/10/23 08:48:03;;;;;;;15.73;5.65;;;;;;;;;;4995618;28;20033;-71
2021/10/23 08:50:30;;;;;;;12.60;5.22;;;;;;;;;;4995293;28;20035;-69
2021/10/23 08:52:58;;;;;;;13.52;5.10;;;;;;;;;;4994325;28;20030;-70
2021/10/23 08:55:24;;;;;;;11.85;5.28;;;;;;;;;;4992859;28;20049;-69
2021/10/23 08:57:50;;;;;;;11.93;4.55;;;;;;;;;;4994687;28;20038;-71
2021/10/23 09:00:16;;;;;;;13.57;5.13;;;;;;;;;;4993939;28;20038;-71
2021/10/23 09:02:43;;;;;;;18.48;4.97;;;;;;;;;;4994582;28;20381;-71
2021/10/23 09:05:09;;;;;;;25.33;5.82;;;;;;;;;;4994351;28;20423;-70
2021/10/23 09:08:01;;;;;;;14.05;4.65;;;;;;;;;;4994814;28;20034;-71
2021/10/23 09:10:31;;;;;;;14.10;7.32;;;;;;;;;;4991261;28;20049;-71
2021/10/23 09:13:07;;;;;;;14.93;6.68;;;;;;;;;;4990436;28;20570;-71
2021/10/23 09:15:35;;;;;;;15.93;8.10;;;;;;;;;;4994570;28;20033;-71
2021/10/23 09:18:02;;;;;;;11.40;5.78;;;;;;;;;;4994605;28;20038;-71
2021/10/23 09:20:28;;;;;;;14.43;5.28;;;;;;;;;;4994728;28;20084;-70
2021/10/23 09:22:55;;;;;;;9.68;4.47;;;;;;;;;;4994411;28;20494;-69
2021/10/23 09:25:21;;;;;;;10.95;5.38;;;;;;;;;;4994249;28;20154;-69
2021/10/23 09:28:01;;;;;;;13.63;4.72;;;;;;;;;;4994685;28;20022;-71
2021/10/23 09:30:38;;;;;;;13.82;5.78;;;;;;;;;;4994642;28;20471;-71
2021/10/23 09:33:12;;;;;;;12.98;7.18;;;;;;;;;;4993962;28;20475;-70
2021/10/23 09:35:45;;;;;;;12.80;5.55;;;;;;;;;;4994461;28;20404;-69
2021/10/23 09:38:12;;;;;;;12.23;5.43;;;;;;;;;;4993913;28;20034;-70
2021/10/23 09:40:39;;;;;;;8.98;4.07;;;;;;;;;;4993950;28;20034;-69
2021/10/23 09:43:14;;;;;;;12.70;6.10;;;;;;;;;;4994265;28;20027;-71
2021/10/23 09:46:00;;;;;;;9.63;4.53;;;;;;;;;;4994374;28;20026;-71
2021/10/23 09:48:45;;;;;;;10.02;4.90;;;;;;;;;;4993847;28;20038;-71
2021/10/23 09:51:21;;;;;;;12.15;4.40;;;;;;;;;;4988790;28;20173;-71
2021/10/23 09:53:50;;;;;;;7.32;4.10;;;;;;;;;;4993553;28;20027;-70
2021/10/23 09:56:18;;;;;;;14.35;6.18;;;;;;;;;;4985159;28;20459;-71
2021/10/23 09:58:53;;;;;;;10.82;4.80;;;;;;;;;;4993645;28;20038;-71
2021/10/23 10:01:20;;;;;;;12.20;5.43;;;;;;;;;;4992783;28;20031;-69
2021/10/23 10:03:46;;;;;;;10.50;5.47;;;;;;;;;;4986069;28;20100;-75
2021/10/23 10:06:12;;;;;;;10.38;4.78;;;;;;;;;;4985804;28;20034;-73
2021/10/23 10:08:39;;;;;;;12.15;5.45;;;;;;;;;;4992875;28;20030;-71
2021/10/23 10:11:05;;;;;;;11.55;4.80;;;;;;;;;;4993071;28;20046;-72
2021/10/23 10:13:33;;;;;;;12.40;4.53;;;;;;;;;;4972229;28;20045;-72
2021/10/23 10:15:59;;;;;;;8.45;4.45;;;;;;;;;;4991167;28;20101;-72
2021/10/23 10:18:37;;;;;;;10.10;5.18;;;;;;;;;;4991503;28;20032;-72
2021/10/23 10:21:06;;;;;;;13.07;6.85;;;;;;;;;;4993963;28;20022;-72
2021/10/23 10:23:35;;;;;;;11.70;4.50;;;;;;;;;;4979316;28;20027;-76
2021/10/23 10:26:20;;;;;;;7.97;4.22;;;;;;;;;;4992136;28;20499;-75
2021/10/23 10:29:05;;;;;;;13.15;4.32;;;;;;;;;;4998187;28;20026;-77
2021/10/23 10:31:53;;;;;;;10.23;4.35;;;;;;;;;;4987648;28;20039;-74
2021/10/23 10:42:53;;;;;;;11.32;5.13;;;;;;;;;;4984364;28;20096;-72
2021/10/23 10:45:23;;;;;;;13.48;5.47;;;;;;;;;;4991862;28;20030;-72
2021/10/23 10:48:08;;;;;;;16.10;7.28;;;;;;;;;;4976377;28;20019;-76
2021/10/23 10:50:42;;;;;;;18.83;10.90;;;;;;;;;;4992585;28;20034;-73
2021/10/23 10:53:08;;;;;;;;;;;;;;;;;;4995667;28;20113;-75
2021/10/23 10:55:43;;;;;;;8.38;4.15;;;;;;;;;;5006186;28;19974;-74
2021/10/23 10:58:11;;;;;;;11.60;5.10;;;;;;;;;;5002379;28;20050;-72
2021/10/23 11:00:46;;;;;;;12.93;7.60;;;;;;;;;;4990985;28;20033;-72
2021/10/23 11:03:34;;;;;;;8.95;4.55;;;;;;;;;;4989801;28;20499;-73
2021/10/23 11:06:19;;;;;;;12.10;5.38;;;;;;;;;;4986109;28;20054;-72
2021/10/23 11:08:45;;;;;;;13.27;4.80;;;;;;;;;;4992546;28;20034;-73
2021/10/23 11:11:15;;;;;;;17.38;4.97;;;;;;;;;;4999912;28;20472;-73
2021/10/23 11:13:44;;;;;;;13.10;4.25;;;;;;;;;;4998549;28;20117;-74
2021/10/23 11:16:27;;;;;;;13.00;4.35;;;;;;;;;;4988680;28;20031;-72
2021/10/23 11:18:59;;;;;;;12.75;4.22;;;;;;;;;;4989807;28;20031;-73
2021/10/23 11:21:26;;;;;;;11.77;5.03;;;;;;;;;;4974609;28;20023;-72
2021/10/23 11:24:00;;;;;;;9.50;4.28;;;;;;;;;;4991893;28;20369;-74
2021/10/23 11:26:46;;;;;;;20.98;11.00;;;;;;;;;;4981256;28;20038;-76
2021/10/23 11:29:46;;;;;;;18.80;6.78;;;;;;;;;;4979703;28;20038;-72
2021/10/23 11:32:21;;;;;;;13.68;6.03;;;;;;;;;;4993198;28;20040;-78
2021/10/23 11:34:48;;;;;;;11.13;4.70;;;;;;;;;;4988381;28;20030;-73
2021/10/23 11:37:20;;;;;;;12.25;5.40;;;;;;;;;;4993733;28;20073;-71
2021/10/23 11:40:34;;;;;;;12.45;5.32;;;;;;;;;;4990765;28;20015;-77
2021/10/23 11:43:00;;;;;;;13.68;5.30;;;;;;;;;;4936377;29;20106;-72
2021/10/23 11:45:27;;;;;;;12.93;4.50;;;;;;;;;;4939226;28;20035;-73
2021/10/23 11:47:56;;;;;;;15.00;5.72;;;;;;;;;;4958651;28;20035;-72
2021/10/23 11:50:27;;;;;;;11.50;5.38;;;;;;;;;;4954069;28;20023;-71
2021/10/23 11:52:55;;;;;;;9.85;6.00;;;;;;;;;;4955969;28;20023;-72
2021/10/23 11:55:30;;;;;;;13.48;6.25;;;;;;;;;;4967828;28;20066;-74
2021/10/23 11:58:07;;;;;;;11.93;5.78;;;;;;;;;;4969523;28;20901;-71
2021/10/23 12:00:35;;;;;;;12.48;4.72;;;;;;;;;;4953631;28;20058;-73
2021/10/23 12:03:04;;;;;;;14.52;5.40;;;;;;;;;;4960814;28;20481;-72
2021/10/23 12:05:41;;;;;;;10.80;5.38;;;;;;;;;;4955861;28;20035;-70
2021/10/23 12:08:10;;;;;;;12.77;5.70;;;;;;;;;;4962009;28;20102;-70
2021/10/23 12:10:55;;;;;;;17.83;6.55;;;;;;;;;;4954682;28;20055;-70
2021/10/23 12:13:21;;;;;;;15.63;5.80;;;;;;;;;;4956846;28;20440;-70
2021/10/23 12:15:59;;;;;;;15.73;8.98;;;;;;;;;;4960285;28;20031;-69
2021/10/23 12:18:34;;;;;;;64.95;29.77;;;;;;;;;;4954053;28;20077;-69
2021/10/23 12:21:15;;;;;;;23.65;13.60;;;;;;;;;;4984255;28;20105;-70
2021/10/23 12:24:03;;;;;;;19.55;5.93;;;;;;;;;;4994328;28;20026;-68
2021/10/23 12:26:30;;;;;;;19.77;6.95;;;;;;;;;;4993632;28;20034;-68
2021/10/23 12:28:59;;;;;;;12.45;6.55;;;;;;;;;;4994871;28;20037;-70
2021/10/23 12:31:50;;;;;;;14.43;5.40;;;;;;;;;;4994577;28;20101;-70
2021/10/23 12:34:16;;;;;;;16.40;7.07;;;;;;;;;;4986209;28;20026;-70
2021/10/23 12:36:49;;;;;;;14.57;8.40;;;;;;;;;;4982852;28;20057;-71
2021/10/23 12:39:22;;;;;;;23.17;12.70;;;;;;;;;;4993451;28;20121;-69
2021/10/23 12:41:49;;;;;;;14.38;5.88;;;;;;;;;;4994316;28;20101;-70
2021/10/23 12:44:22;;;;;;;11.70;6.18;;;;;;;;;;4992269;28;20041;-69
2021/10/23 12:46:48;;;;;;;;;;;;;;;;;;4992983;28;20426;-71
2021/10/23 12:49:15;;;;;;;14.98;7.07;;;;;;;;;;4995078;28;19913;-71
2021/10/23 12:51:41;;;;;;;13.43;6.47;;;;;;;;;;4972366;28;20443;-71
2021/10/23 12:54:07;;;;;;;18.50;8.65;;;;;;;;;;4993751;28;20480;-70
2021/10/23 12:56:34;;;;;;;21.30;10.52;;;;;;;;;;4990141;28;20037;-71
2021/10/23 12:59:00;;;;;;;16.95;9.45;;;;;;;;;;4996192;28;20040;-70
2021/10/23 13:01:26;;;;;;;15.98;7.57;;;;;;;;;;4990854;28;20029;-71
2021/10/23 13:03:53;;;;;;;17.38;8.25;;;;;;;;;;4992180;28;20041;-71
2021/10/23 13:06:20;;;;;;;14.05;7.15;;;;;;;;;;4994590;28;20019;-71
2021/10/23 13:08:46;;;;;;;10.38;5.70;;;;;;;;;;4994304;28;20030;-69
2021/10/23 13:11:12;;;;;;;15.88;6.97;;;;;;;;;;4994544;28;20026;-72
2021/10/23 13:13:42;;;;;;;10.80;5.57;;;;;;;;;;4993548;28;20057;-69
2021/10/23 13:16:10;;;;;;;17.40;8.15;;;;;;;;;;4989476;28;20033;-70
2021/10/23 13:18:37;;;;;;;8.95;5.38;;;;;;;;;;4990579;28;20037;-70
2021/10/23 13:21:06;;;;;;;22.25;10.35;;;;;;;;;;4989703;28;20053;-72
2021/10/23 13:23:35;;;;;;;24.52;11.38;;;;;;;;;;4991630;28;20050;-71
2021/10/23 13:26:01;;;;;;;16.42;8.88;;;;;;;;;;4994127;28;20166;-70
2021/10/23 13:28:31;;;;;;;13.75;6.55;;;;;;;;;;4993594;28;20547;-69
2021/10/23 13:30:58;;;;;;;14.40;7.20;;;;;;;;;;4993544;28;20456;-69
2021/10/23 13:33:24;;;;;;;14.32;5.90;;;;;;;;;;4991510;28;20498;-69
2021/10/23 13:35:53;;;;;;;14.50;9.02;;;;;;;;;;4992779;28;20088;-69
2021/10/23 13:38:19;;;;;;;13.05;6.07;;;;;;;;;;4994605;28;20156;-69
2021/10/23 13:40:45;;;;;;;15.82;6.55;;;;;;;;;;4994382;28;20029;-68
2021/10/23 13:43:11;;;;;;;12.52;6.85;;;;;;;;;;4993909;28;20361;-69
2021/10/23 13:45:37;;;;;;;19.20;7.75;;;;;;;;;;4992065;28;20026;-70
2021/10/23 13:48:03;;;;;;;13.70;6.70;;;;;;;;;;4993821;28;20105;-70
2021/10/23 13:50:29;;;;;;;13.85;6.10;;;;;;;;;;4991824;28;20048;-69
2021/10/23 13:52:56;;;;;;;13.02;5.20;;;;;;;;;;4993747;28;20049;-70
2021/10/23 13:55:22;;;;;;;14.93;5.50;;;;;;;;;;4989659;28;20380;-70
2021/10/23 13:57:48;;;;;;;12.43;5.00;;;;;;;;;;4995452;28;20022;-69
2021/10/23 14:00:14;;;;;;;9.30;4.80;;;;;;;;;;4992897;28;20026;-69
2021/10/23 14:02:40;;;;;;;17.45;6.40;;;;;;;;;;4991848;28;20034;-69
2021/10/23 14:05:06;;;;;;;12.07;5.57;;;;;;;;;;4991386;28;20057;-71
2021/10/23 14:07:32;;;;;;;16.67;6.25;;;;;;;;;;4993333;28;20022;-70
2021/10/23 14:09:59;;;;;;;20.33;10.02;;;;;;;;;;4993367;28;20022;-70
2021/10/23 14:12:25;;;;;;;13.57;7.47;;;;;;;;;;4988360;28;20084;-70
2021/10/23 14:14:51;;;;;;;13.00;5.07;;;;;;;;;;4990357;28;20049;-70
2021/10/23 14:17:17;;;;;;;10.65;5.10;;;;;;;;;;4992906;28;20022;-70
2021/10/23 14:19:45;;;;;;;15.15;6.05;;;;;;;;;;4987383;28;20038;-69
2021/10/23 14:22:15;;;;;;;28.58;11.48;;;;;;;;;;4990498;28;20047;-70
2021/10/23 14:24:42;;;;;;;12.70;5.47;;;;;;;;;;4990573;28;20388;-70
2021/10/23 14:27:13;;;;;;;12.52;5.60;;;;;;;;;;4993020;28;20077;-69
2021/10/23 14:29:39;;;;;;;30.45;13.18;;;;;;;;;;4984580;28;20158;-70
2021/10/23 14:32:06;;;;;;;16.20;6.20;;;;;;;;;;4993381;28;20093;-71
2021/10/23 14:34:32;;;;;;;15.77;5.68;;;;;;;;;;4992041;28;20027;-69
2021/10/23 14:36:58;;;;;;;16.33;5.80;;;;;;;;;;4992391;28;20023;-71
2021/10/23 14:39:24;;;;;;;13.02;5.28;;;;;;;;;;4991891;28;20042;-70
2021/10/23 14:41:50;;;;;;;12.90;6.78;;;;;;;;;;4991121;28;20028;-70
2021/10/23 14:44:16;;;;;;;12.48;5.93;;;;;;;;;;4982139;28;20033;-71